Time;durP1;ratioP1;P1;durP2;ratioP2;P2;SDS_P1;SDS_P2;PMS_P1;PMS_P2;Temp;Humidity;BMP_temperature;BMP_pressure;BME280_temperature;BME280_humidity;BME280_pressure;Samples;Min_cycle;Max_cycle;Signal;HPM_P1;HPM_P2
2022/07/24 00:00:36;;;;;;;3.63;3.20;;;21.40;99.90;;;;;;5098417;28;20211;-73
2022/07/24 00:03:05;;;;;;;3.95;3.47;;;21.30;99.90;;;;;;5094538;28;20175;-73
2022/07/24 00:05:33;;;;;;;4.15;3.75;;;21.30;99.90;;;;;;5094277;28;20216;-73
2022/07/24 00:08:02;;;;;;;3.40;3.00;;;21.30;99.90;;;;;;5093209;28;20171;-73
2022/07/24 00:10:31;;;;;;;3.20;2.90;;;21.20;99.90;;;;;;5100615;28;20194;-72
2022/07/24 00:12:58;;;;;;;3.75;3.35;;;21.20;99.90;;;;;;5095103;28;20299;-73
2022/07/24 00:15:26;;;;;;;3.45;3.13;;;21.20;99.90;;;;;;5094379;28;20180;-70
2022/07/24 00:17:54;;;;;;;3.70;3.33;;;21.10;99.90;;;;;;5093993;28;20198;-72
2022/07/24 00:20:21;;;;;;;3.50;3.20;;;21.10;99.90;;;;;;5099733;28;20191;-73
2022/07/24 00:22:46;;;;;;;5.00;3.35;;;21.10;99.90;;;;;;5094162;28;20186;-73
2022/07/24 00:25:12;;;;;;;3.45;3.15;;;21.10;99.90;;;;;;5096870;28;20168;-72
2022/07/24 00:27:40;;;;;;;3.67;3.22;;;21.10;99.90;;;;;;5092831;28;20391;-73
2022/07/24 00:30:09;;;;;;;3.50;3.20;;;21.00;99.90;;;;;;5093402;28;20172;-72
2022/07/24 00:32:37;;;;;;;3.60;3.25;;;21.00;99.90;;;;;;5095718;28;20198;-72
2022/07/24 00:35:03;;;;;;;3.92;3.42;;;20.90;99.90;;;;;;5096291;28;20186;-72
2022/07/24 00:37:28;;;;;;;3.30;3.00;;;20.90;99.90;;;;;;5097373;28;20175;-73
2022/07/24 00:39:54;;;;;;;3.85;3.45;;;20.80;99.90;;;;;;5092925;28;20187;-73
2022/07/24 00:42:19;;;;;;;3.42;3.00;;;20.80;99.90;;;;;;5093173;28;20567;-73
2022/07/24 00:44:45;;;;;;;3.40;3.10;;;20.80;99.90;;;;;;5093856;28;20183;-73
2022/07/24 00:47:11;;;;;;;3.72;3.22;;;20.70;99.90;;;;;;5094150;28;20217;-73
2022/07/24 00:49:37;;;;;;;4.35;3.20;;;20.70;99.90;;;;;;5093182;28;20195;-73
2022/07/24 00:52:03;;;;;;;4.03;3.63;;;20.70;99.90;;;;;;5092793;28;20187;-72
2022/07/24 00:54:31;;;;;;;3.80;3.38;;;20.70;99.90;;;;;;5095640;28;20176;-73
2022/07/24 00:56:56;;;;;;;3.60;3.30;;;20.70;99.90;;;;;;5093179;28;20172;-71
2022/07/24 00:59:23;;;;;;;3.40;3.10;;;20.70;99.90;;;;;;5097004;28;20244;-71
2022/07/24 01:01:49;;;;;;;3.95;3.17;;;20.60;99.90;;;;;;5097023;28;20179;-73
2022/07/24 01:04:20;;;;;;;3.55;3.25;;;20.60;99.90;;;;;;5092862;28;20254;-72
2022/07/24 01:06:46;;;;;;;4.00;3.15;;;20.60;99.90;;;;;;5092507;28;20168;-73
2022/07/24 01:09:12;;;;;;;4.25;3.05;;;20.60;99.90;;;;;;5125495;27;20211;-73
2022/07/24 01:11:43;;;;;;;3.20;2.90;;;20.60;99.90;;;;;;5091862;28;20198;-72
2022/07/24 01:14:14;;;;;;;3.33;3.03;;;20.60;99.90;;;;;;5125606;27;20169;-73
2022/07/24 01:16:42;;;;;;;3.70;3.15;;;20.60;99.90;;;;;;5089667;28;20192;-72
2022/07/24 01:19:08;;;;;;;3.13;2.83;;;20.60;99.90;;;;;;5125495;27;20184;-72
2022/07/24 01:21:36;;;;;;;3.22;2.92;;;20.60;99.90;;;;;;5101443;28;20195;-73
2022/07/24 01:24:01;;;;;;;3.80;3.03;;;20.60;99.90;;;;;;5093709;28;20278;-72
2022/07/24 01:26:27;;;;;;;4.18;3.53;;;20.50;99.90;;;;;;5095582;28;20276;-73
2022/07/24 01:28:56;;;;;;;3.55;3.15;;;20.50;99.90;;;;;;5092599;28;20209;-72
2022/07/24 01:31:21;;;;;;;3.80;3.40;;;20.50;99.90;;;;;;5092694;28;20282;-73
2022/07/24 01:33:51;;;;;;;4.00;3.55;;;20.50;99.90;;;;;;5093545;28;20263;-72
2022/07/24 01:36:17;;;;;;;3.50;3.13;;;20.50;99.90;;;;;;5126909;27;20264;-70
2022/07/24 01:38:46;;;;;;;3.50;3.05;;;20.40;99.90;;;;;;5094773;28;20244;-71
2022/07/24 01:41:12;;;;;;;3.33;3.03;;;20.40;99.90;;;;;;5092811;28;20187;-73
2022/07/24 01:43:37;;;;;;;3.70;3.40;;;20.40;99.90;;;;;;5094827;28;20202;-72
2022/07/24 01:46:03;;;;;;;4.15;3.45;;;20.40;99.90;;;;;;5093324;28;20175;-73
2022/07/24 01:48:29;;;;;;;3.63;3.33;;;20.30;99.90;;;;;;5096184;28;20192;-73
2022/07/24 01:50:54;;;;;;;3.60;3.30;;;20.30;99.90;;;;;;5091594;28;20302;-73
2022/07/24 01:53:22;;;;;;;3.22;2.85;;;20.30;99.90;;;;;;5092979;28;20186;-72
2022/07/24 01:55:53;;;;;;;3.47;3.17;;;20.30;99.90;;;;;;5091901;28;20175;-72
2022/07/24 01:58:22;;;;;;;4.72;3.22;;;20.30;99.90;;;;;;5094030;28;20172;-71
2022/07/24 02:00:47;;;;;;;3.88;3.03;;;20.30;99.90;;;;;;5093164;28;20180;-73
2022/07/24 02:03:13;;;;;;;4.15;3.20;;;20.20;99.90;;;;;;5091606;28;20190;-73
2022/07/24 02:05:39;;;;;;;3.55;3.25;;;20.20;99.90;;;;;;5094991;28;20191;-73
2022/07/24 02:08:05;;;;;;;4.43;2.97;;;20.20;99.90;;;;;;5096601;28;20207;-71
2022/07/24 02:10:31;;;;;;;5.68;3.13;;;20.20;99.90;;;;;;5095709;28;20188;-72
2022/07/24 02:12:57;;;;;;;3.67;3.28;;;20.10;99.90;;;;;;5093902;28;20195;-73
2022/07/24 02:15:23;;;;;;;4.38;3.38;;;20.10;99.90;;;;;;5093191;28;20184;-73
2022/07/24 02:17:51;;;;;;;3.45;3.15;;;20.10;99.90;;;;;;5097883;28;20178;-72
2022/07/24 02:20:17;;;;;;;4.18;3.33;;;20.10;99.90;;;;;;5102973;28;20198;-72
2022/07/24 02:22:43;;;;;;;3.47;3.17;;;20.10;99.90;;;;;;5098429;28;20216;-71
2022/07/24 02:25:10;;;;;;;3.60;3.25;;;20.00;99.90;;;;;;5095803;28;20199;-73
2022/07/24 02:27:38;;;;;;;4.60;3.53;;;20.10;99.90;;;;;;5095303;28;20271;-71
2022/07/24 02:30:21;;;;;;;4.40;3.60;;;20.00;99.90;;;;;;5103003;28;20240;-73
2022/07/24 02:32:49;;;;;;;4.90;3.72;;;20.00;99.90;;;;;;5096878;28;20203;-72
2022/07/24 02:35:20;;;;;;;3.65;3.17;;;20.00;99.90;;;;;;5096093;28;20195;-70
2022/07/24 02:37:46;;;;;;;3.75;3.38;;;20.00;99.90;;;;;;5099837;28;20228;-71
2022/07/24 02:40:16;;;;;;;4.85;3.70;;;19.90;99.90;;;;;;5094625;28;20275;-72
2022/07/24 02:42:43;;;;;;;3.10;2.78;;;19.90;99.90;;;;;;5097832;28;20183;-73
2022/07/24 02:45:09;;;;;;;3.60;3.30;;;19.90;99.90;;;;;;5095848;28;20176;-71
2022/07/24 02:47:50;;;;;;;4.22;3.22;;;19.90;99.90;;;;;;5095892;28;20329;-73
2022/07/24 02:50:22;;;;;;;3.63;3.25;;;19.80;99.90;;;;;;5096702;28;20176;-73
2022/07/24 02:52:51;;;;;;;3.92;3.30;;;19.80;99.90;;;;;;5099264;28;20200;-73
2022/07/24 02:55:18;;;;;;;3.55;3.22;;;19.80;99.90;;;;;;5096309;28;20190;-73
2022/07/24 02:57:46;;;;;;;3.80;3.40;;;19.80;99.90;;;;;;5099535;28;20184;-72
2022/07/24 03:00:15;;;;;;;3.63;3.33;;;19.80;99.90;;;;;;5101870;28;20428;-73
2022/07/24 03:02:41;;;;;;;3.78;3.42;;;19.80;99.90;;;;;;5096372;28;20180;-73
2022/07/24 03:05:09;;;;;;;4.00;3.45;;;19.80;99.90;;;;;;5098209;28;20176;-74
2022/07/24 03:07:36;;;;;;;3.75;3.45;;;19.70;99.90;;;;;;5096808;28;20204;-73
2022/07/24 03:10:03;;;;;;;3.45;3.15;;;19.70;99.90;;;;;;5094800;28;20255;-74
2022/07/24 03:12:29;;;;;;;3.72;3.42;;;19.70;99.90;;;;;;5095929;28;20219;-71
2022/07/24 03:14:57;;;;;;;4.65;3.40;;;19.70;99.90;;;;;;5096677;28;20429;-72
2022/07/24 03:17:22;;;;;;;3.83;3.25;;;19.70;99.90;;;;;;5096225;28;20211;-75
2022/07/24 03:19:48;;;;;;;3.70;3.40;;;19.60;99.90;;;;;;5099356;28;20176;-72
2022/07/24 03:22:14;;;;;;;4.18;3.30;;;19.70;99.90;;;;;;5096631;28;20172;-72
2022/07/24 03:24:39;;;;;;;3.67;3.38;;;19.60;99.90;;;;;;5098084;28;20277;-72
2022/07/24 03:27:05;;;;;;;3.60;3.30;;;19.60;99.90;;;;;;5095257;28;20261;-73
2022/07/24 03:29:31;;;;;;;3.83;3.28;;;19.60;99.90;;;;;;5096713;28;20180;-72
2022/07/24 03:31:57;;;;;;;4.70;3.83;;;19.60;99.90;;;;;;5095672;28;20215;-73
2022/07/24 03:34:24;;;;;;;3.92;3.53;;;19.60;99.90;;;;;;5095221;28;20216;-72
2022/07/24 03:36:52;;;;;;;4.10;3.40;;;19.50;99.90;;;;;;5096597;28;20238;-73
2022/07/24 03:39:22;;;;;;;3.75;3.38;;;19.50;99.90;;;;;;5101004;28;20194;-72
2022/07/24 03:41:48;;;;;;;4.55;3.28;;;19.50;99.90;;;;;;5097737;28;20202;-72
2022/07/24 03:44:14;;;;;;;4.03;3.63;;;19.50;99.90;;;;;;5096359;28;20180;-73
2022/07/24 03:46:40;;;;;;;4.43;3.63;;;19.50;99.90;;;;;;5095119;28;20211;-73
2022/07/24 03:49:05;;;;;;;5.03;3.75;;;19.50;99.90;;;;;;5100010;28;20198;-73
2022/07/24 03:51:34;;;;;;;3.42;3.10;;;19.50;99.90;;;;;;5094884;28;20212;-73
2022/07/24 03:54:03;;;;;;;4.15;3.60;;;19.50;99.90;;;;;;5099133;28;20237;-72
2022/07/24 03:56:29;;;;;;;4.72;3.30;;;19.40;99.90;;;;;;5098678;28;20172;-73
2022/07/24 03:58:55;;;;;;;4.47;3.65;;;19.40;99.90;;;;;;5097065;28;20184;-72
2022/07/24 04:01:22;;;;;;;3.65;3.35;;;19.50;99.90;;;;;;5100297;28;20187;-73
2022/07/24 04:03:48;;;;;;;4.38;3.22;;;19.40;99.90;;;;;;5093842;28;20164;-73
2022/07/24 04:06:13;;;;;;;4.00;3.38;;;19.40;99.90;;;;;;5095112;28;20281;-73
2022/07/24 04:08:39;;;;;;;4.25;3.58;;;19.40;99.90;;;;;;5093881;28;20241;-73
2022/07/24 04:11:07;;;;;;;3.90;3.25;;;19.40;99.90;;;;;;5096344;28;20226;-73
2022/07/24 04:13:36;;;;;;;3.70;3.15;;;19.50;99.90;;;;;;5094033;28;20446;-72
2022/07/24 04:16:02;;;;;;;3.78;3.25;;;19.50;99.90;;;;;;5099483;28;20179;-72
2022/07/24 04:18:30;;;;;;;3.70;3.33;;;19.50;99.90;;;;;;5097057;28;20172;-72
2022/07/24 04:20:56;;;;;;;3.80;3.40;;;19.50;99.90;;;;;;5093213;28;20184;-73
2022/07/24 04:23:22;;;;;;;4.57;3.75;;;19.50;99.90;;;;;;5090975;28;20309;-72
2022/07/24 04:25:47;;;;;;;3.80;3.40;;;19.50;99.90;;;;;;5132392;27;20237;-73
2022/07/24 04:28:13;;;;;;;4.22;3.28;;;19.50;99.90;;;;;;5093378;28;20207;-73
2022/07/24 04:30:42;;;;;;;5.75;3.78;;;19.60;99.90;;;;;;5095006;28;20232;-73
2022/07/24 04:33:07;;;;;;;4.93;3.60;;;19.60;99.90;;;;;;5096977;28;20192;-73
2022/07/24 04:35:33;;;;;;;3.88;3.47;;;19.60;99.90;;;;;;5098268;28;20214;-72
2022/07/24 04:38:01;;;;;;;3.67;3.28;;;19.60;99.90;;;;;;5094564;28;20332;-73
2022/07/24 04:40:29;;;;;;;4.50;3.28;;;19.70;99.90;;;;;;5096024;28;20168;-73
2022/07/24 04:42:55;;;;;;;4.35;3.38;;;19.70;99.90;;;;;;5095156;28;20189;-72
2022/07/24 04:45:23;;;;;;;4.05;3.65;;;19.70;99.90;;;;;;5096541;28;20240;-73
2022/07/24 04:47:51;;;;;;;5.15;3.35;;;19.70;99.90;;;;;;5094468;28;20172;-73
2022/07/24 04:50:17;;;;;;;4.25;3.65;;;19.80;99.90;;;;;;5093084;28;20206;-73
2022/07/24 04:52:42;;;;;;;4.25;3.63;;;19.80;99.90;;;;;;5094221;28;20227;-71
2022/07/24 04:55:09;;;;;;;3.83;3.35;;;19.80;99.90;;;;;;5094793;28;20176;-72
2022/07/24 04:57:34;;;;;;;3.80;3.05;;;19.90;99.90;;;;;;5095295;28;20176;-72
2022/07/24 05:00:00;;;;;;;3.95;3.40;;;19.90;99.90;;;;;;5095059;28;20248;-73
2022/07/24 05:02:28;;;;;;;4.28;3.65;;;20.00;99.90;;;;;;5095369;28;20176;-72
2022/07/24 05:04:56;;;;;;;4.35;3.25;;;20.00;99.90;;;;;;5092224;28;20180;-72
2022/07/24 05:07:24;;;;;;;4.32;3.30;;;20.00;99.90;;;;;;5093376;28;20194;-73
2022/07/24 05:09:52;;;;;;;7.65;5.72;;;20.10;99.90;;;;;;5093260;28;20222;-73
2022/07/24 05:12:18;;;;;;;4.65;3.95;;;20.10;99.90;;;;;;5092044;28;20229;-73
2022/07/24 05:14:43;;;;;;;8.50;7.60;;;20.20;99.90;;;;;;5093834;28;20164;-73
2022/07/24 05:17:11;;;;;;;6.03;5.38;;;20.20;99.90;;;;;;5095379;28;20180;-73
2022/07/24 05:19:39;;;;;;;5.75;5.20;;;20.20;99.90;;;;;;5092443;28;20184;-73
2022/07/24 05:22:04;;;;;;;5.28;4.78;;;20.30;99.90;;;;;;5092891;28;20168;-73
2022/07/24 05:24:30;;;;;;;5.10;4.60;;;20.30;99.90;;;;;;5094373;28;20184;-73
2022/07/24 05:26:56;;;;;;;4.70;4.00;;;20.40;99.90;;;;;;5094508;28;20191;-73
2022/07/24 05:29:24;;;;;;;4.20;3.50;;;20.40;99.90;;;;;;5092041;28;20255;-72
2022/07/24 05:31:54;;;;;;;5.10;4.22;;;20.40;99.90;;;;;;5097909;28;20206;-72
2022/07/24 05:34:20;;;;;;;4.70;4.30;;;20.50;99.90;;;;;;5093860;28;20206;-73
2022/07/24 05:36:46;;;;;;;4.97;4.47;;;20.50;99.90;;;;;;5093585;28;20179;-73
2022/07/24 05:39:11;;;;;;;4.13;3.72;;;20.50;99.90;;;;;;5088619;28;20183;-71
2022/07/24 05:41:37;;;;;;;4.90;3.95;;;20.60;99.90;;;;;;5094639;28;20171;-71
2022/07/24 05:44:03;;;;;;;4.25;3.85;;;20.70;99.90;;;;;;5093683;28;20206;-72
2022/07/24 05:46:29;;;;;;;4.70;4.20;;;20.70;99.90;;;;;;5095487;28;20271;-71
2022/07/24 05:48:54;;;;;;;4.30;3.78;;;20.80;99.90;;;;;;5093225;28;20212;-70
2022/07/24 05:51:22;;;;;;;4.38;3.90;;;20.90;99.90;;;;;;5095354;28;20203;-71
2022/07/24 05:53:50;;;;;;;3.92;3.63;;;20.90;99.90;;;;;;5100409;28;20176;-72
2022/07/24 05:56:18;;;;;;;4.68;3.97;;;21.00;99.90;;;;;;5098267;28;20223;-86
2022/07/24 05:58:44;;;;;;;4.32;3.92;;;21.00;99.90;;;;;;5096439;28;20202;-89
2022/07/24 06:01:12;;;;;;;4.22;3.83;;;21.10;99.90;;;;;;5098723;28;20180;-86
2022/07/24 06:03:42;;;;;;;3.75;3.45;;;21.20;99.90;;;;;;5097731;28;20199;-87
2022/07/24 06:06:07;;;;;;;3.50;3.20;;;21.20;99.90;;;;;;5094918;28;20199;-89
2022/07/24 06:08:33;;;;;;;3.88;3.55;;;21.30;99.90;;;;;;5100324;28;20196;-86
2022/07/24 06:11:01;;;;;;;3.65;3.33;;;21.30;99.90;;;;;;5099687;28;20732;-86
2022/07/24 06:13:29;;;;;;;3.97;3.55;;;21.40;99.90;;;;;;5098857;28;20182;-87
2022/07/24 06:15:54;;;;;;;4.05;3.65;;;21.40;99.90;;;;;;5098917;28;20206;-84
2022/07/24 06:18:22;;;;;;;4.03;3.55;;;21.50;99.90;;;;;;5099479;28;20172;-87
2022/07/24 06:20:48;;;;;;;5.78;3.42;;;21.50;99.90;;;;;;5098882;28;20198;-86
2022/07/24 06:23:13;;;;;;;4.20;3.40;;;21.60;99.90;;;;;;5100551;28;20200;-85
2022/07/24 06:25:39;;;;;;;3.50;3.20;;;21.70;99.90;;;;;;5098380;28;20183;-79
2022/07/24 06:28:05;;;;;;;4.13;3.50;;;21.70;99.90;;;;;;5098647;28;20177;-88
2022/07/24 06:30:30;;;;;;;3.75;3.40;;;21.80;99.90;;;;;;5097108;28;20196;-81
2022/07/24 06:33:00;;;;;;;4.05;3.00;;;21.80;99.90;;;;;;5100955;28;20210;-87
2022/07/24 06:35:27;;;;;;;3.53;3.22;;;21.90;99.90;;;;;;5096601;28;20244;-88
2022/07/24 06:38:00;;;;;;;3.50;3.20;;;21.90;99.90;;;;;;5102327;28;20212;-88
2022/07/24 06:40:29;;;;;;;3.78;3.20;;;22.00;99.90;;;;;;5101367;28;20176;-78
2022/07/24 06:42:55;;;;;;;3.72;2.92;;;22.10;99.90;;;;;;5113033;28;20188;-70
2022/07/24 06:45:21;;;;;;;3.58;3.20;;;22.20;99.90;;;;;;5107806;28;20194;-80
2022/07/24 06:47:46;;;;;;;3.63;3.33;;;22.30;99.90;;;;;;5101834;28;20176;-81
2022/07/24 06:50:13;;;;;;;3.75;3.30;;;22.30;99.90;;;;;;5106176;28;20215;-79
2022/07/24 06:52:45;;;;;;;4.28;3.22;;;22.40;99.90;;;;;;5099556;28;20298;-79
2022/07/24 06:55:11;;;;;;;3.38;3.08;;;22.50;99.90;;;;;;5098837;28;20184;-79
2022/07/24 06:57:39;;;;;;;3.35;3.05;;;22.60;99.90;;;;;;5098085;28;20206;-79
2022/07/24 07:00:11;;;;;;;3.83;3.53;;;22.60;99.90;;;;;;5101953;28;20164;-79
2022/07/24 07:02:37;;;;;;;3.35;3.05;;;22.70;99.90;;;;;;5102210;28;20196;-74
2022/07/24 07:05:08;;;;;;;3.42;3.13;;;22.80;99.90;;;;;;5100589;28;20176;-75
2022/07/24 07:07:35;;;;;;;3.88;3.40;;;22.90;99.90;;;;;;5103508;28;20195;-71
2022/07/24 07:10:01;;;;;;;3.92;3.53;;;22.90;99.90;;;;;;5101825;28;20245;-74
2022/07/24 07:12:27;;;;;;;3.65;3.35;;;23.00;99.90;;;;;;5099103;28;20196;-73
2022/07/24 07:14:53;;;;;;;3.70;3.30;;;23.10;99.90;;;;;;5106154;28;20183;-76
2022/07/24 07:17:19;;;;;;;3.85;3.45;;;23.10;99.90;;;;;;5097024;28;20196;-76
2022/07/24 07:19:47;;;;;;;3.83;3.28;;;23.20;99.90;;;;;;5102054;28;20188;-73
2022/07/24 07:22:12;;;;;;;4.82;3.17;;;23.30;99.90;;;;;;5102865;28;20172;-75
2022/07/24 07:24:40;;;;;;;3.65;3.28;;;23.30;99.90;;;;;;5098995;28;20199;-75
2022/07/24 07:27:08;;;;;;;4.50;3.30;;;23.40;99.90;;;;;;5099248;28;20493;-76
2022/07/24 07:29:36;;;;;;;4.45;3.15;;;23.40;99.90;;;;;;5099089;28;20446;-72
2022/07/24 07:32:02;;;;;;;3.28;2.90;;;23.50;99.90;;;;;;5098729;28;20213;-76
2022/07/24 07:34:28;;;;;;;3.50;3.10;;;23.60;99.90;;;;;;5102089;28;20169;-76
2022/07/24 07:36:53;;;;;;;3.80;3.28;;;23.70;99.90;;;;;;5101109;28;20179;-75
2022/07/24 07:39:19;;;;;;;3.95;3.17;;;23.70;99.90;;;;;;5097512;28;20196;-75
2022/07/24 07:41:47;;;;;;;3.55;3.25;;;23.80;99.90;;;;;;5100290;28;20274;-76
2022/07/24 07:44:15;;;;;;;3.67;3.38;;;23.90;99.90;;;;;;5095340;28;20191;-76
2022/07/24 07:46:40;;;;;;;3.78;3.40;;;23.90;99.90;;;;;;5098291;28;20176;-75
2022/07/24 07:49:06;;;;;;;3.40;3.10;;;24.00;99.90;;;;;;5099128;28;20190;-74
2022/07/24 07:51:34;;;;;;;3.22;2.92;;;24.10;99.90;;;;;;5097948;28;20208;-76
2022/07/24 07:53:59;;;;;;;3.55;3.15;;;24.20;99.90;;;;;;5096846;28;20238;-75
2022/07/24 07:56:25;;;;;;;4.30;3.30;;;24.30;99.90;;;;;;5103507;28;20206;-73
2022/07/24 07:58:50;;;;;;;3.05;2.75;;;24.40;99.90;;;;;;5105031;28;20249;-76
2022/07/24 08:01:16;;;;;;;3.17;2.88;;;24.40;99.90;;;;;;5100957;28;20245;-75
2022/07/24 08:03:42;;;;;;;3.75;3.42;;;24.50;99.90;;;;;;5092092;28;20242;-75
2022/07/24 08:06:08;;;;;;;3.40;3.10;;;24.60;99.90;;;;;;5097157;28;20252;-75
2022/07/24 08:08:35;;;;;;;3.38;3.08;;;24.70;99.90;;;;;;5096127;28;20195;-76
2022/07/24 08:11:04;;;;;;;3.40;3.10;;;24.80;99.90;;;;;;5095520;28;20204;-75
2022/07/24 08:13:29;;;;;;;3.50;3.13;;;24.90;99.90;;;;;;5093760;28;20389;-76
2022/07/24 08:15:57;;;;;;;3.35;3.05;;;24.90;99.90;;;;;;5096800;28;20263;-75
2022/07/24 08:18:25;;;;;;;3.22;2.90;;;25.00;99.90;;;;;;5095019;28;20180;-77
2022/07/24 08:20:55;;;;;;;3.40;3.05;;;25.10;99.90;;;;;;5097267;28;20195;-76
2022/07/24 08:23:21;;;;;;;3.53;2.90;;;25.20;99.90;;;;;;5094682;28;20187;-75
2022/07/24 08:25:49;;;;;;;3.47;2.80;;;25.20;99.90;;;;;;5095755;28;20419;-76
2022/07/24 08:28:14;;;;;;;3.40;3.10;;;25.40;99.90;;;;;;5098879;28;20285;-76
2022/07/24 08:30:40;;;;;;;3.95;3.22;;;25.40;99.90;;;;;;5093446;28;20204;-76
2022/07/24 08:33:06;;;;;;;4.20;3.15;;;25.50;99.90;;;;;;5097537;28;20282;-75
2022/07/24 08:35:34;;;;;;;3.58;3.25;;;25.60;99.90;;;;;;5095236;28;20184;-77
2022/07/24 08:38:02;;;;;;;4.97;3.15;;;25.70;99.90;;;;;;5096955;28;20176;-75
2022/07/24 08:40:36;;;;;;;4.03;3.30;;;25.80;99.90;;;;;;5095056;28;20168;-75
2022/07/24 08:43:11;;;;;;;4.72;3.72;;;25.90;99.90;;;;;;5103337;28;20205;-76
2022/07/24 08:45:39;;;;;;;3.30;3.00;;;26.00;99.90;;;;;;5099972;28;20206;-77
2022/07/24 08:48:10;;;;;;;5.57;3.03;;;26.10;99.90;;;;;;5102105;28;20176;-73
2022/07/24 08:50:37;;;;;;;3.40;3.10;;;26.20;99.90;;;;;;5106762;28;20176;-75
2022/07/24 08:53:06;;;;;;;3.40;3.10;;;26.30;99.90;;;;;;5096601;28;20226;-77
2022/07/24 08:55:32;;;;;;;3.15;2.88;;;26.40;99.90;;;;;;5098565;28;20192;-75
2022/07/24 08:58:01;;;;;;;3.40;3.10;;;26.50;99.90;;;;;;5098589;28;20219;-76
2022/07/24 09:00:31;;;;;;;3.85;2.97;;;26.50;99.90;;;;;;5101083;28;20168;-76
2022/07/24 09:02:56;;;;;;;3.42;3.13;;;26.60;99.90;;;;;;5093805;28;20191;-75
2022/07/24 09:05:25;;;;;;;3.28;2.65;;;26.70;99.90;;;;;;5099880;28;20168;-77
2022/07/24 09:08:05;;;;;;;3.67;3.20;;;26.80;99.90;;;;;;5101844;28;20172;-74
2022/07/24 09:10:33;;;;;;;3.30;3.00;;;26.80;99.90;;;;;;5095775;28;20171;-77
2022/07/24 09:13:15;;;;;;;3.38;3.08;;;26.90;99.90;;;;;;5095602;28;20206;-76
2022/07/24 09:15:51;;;;;;;4.43;3.28;;;27.00;99.90;;;;;;5093636;28;20188;-76
2022/07/24 09:18:30;;;;;;;3.50;3.20;;;27.10;99.90;;;;;;5095057;28;20181;-77
2022/07/24 09:20:56;;;;;;;5.13;3.53;;;27.20;99.90;;;;;;5095643;28;20186;-76
2022/07/24 09:23:22;;;;;;;4.53;4.13;;;27.30;99.90;;;;;;5093647;28;20171;-77
2022/07/24 09:25:54;;;;;;;4.20;3.80;;;27.30;99.90;;;;;;5093364;28;20195;-76
2022/07/24 09:28:20;;;;;;;3.90;3.50;;;27.40;99.90;;;;;;5096506;28;20457;-77
2022/07/24 09:30:50;;;;;;;4.20;3.08;;;27.50;99.90;;;;;;5093127;28;20175;-77
2022/07/24 09:33:24;;;;;;;3.30;3.00;;;27.50;99.90;;;;;;5093763;28;20290;-77
2022/07/24 09:35:56;;;;;;;3.72;3.30;;;27.60;99.90;;;;;;5091533;28;20634;-75
2022/07/24 09:38:24;;;;;;;3.67;3.38;;;27.70;99.90;;;;;;5090280;28;20198;-77
2022/07/24 09:40:59;;;;;;;3.40;3.10;;;27.80;99.90;;;;;;5094168;28;20184;-77
2022/07/24 09:43:26;;;;;;;3.30;3.00;;;27.90;99.90;;;;;;5092535;28;20164;-77
2022/07/24 09:46:04;;;;;;;3.75;3.20;;;28.00;99.90;;;;;;5095636;28;20200;-79
2022/07/24 09:48:30;;;;;;;4.53;3.40;;;28.10;99.90;;;;;;5092807;28;20199;-77
2022/07/24 09:51:02;;;;;;;3.33;3.03;;;28.10;99.90;;;;;;5092778;28;20828;-79
2022/07/24 09:53:31;;;;;;;3.33;3.03;;;28.20;99.90;;;;;;5108100;28;20176;-77
2022/07/24 09:56:00;;;;;;;3.50;3.20;;;28.30;99.90;;;;;;5101873;28;20186;-78
2022/07/24 09:58:26;;;;;;;3.13;2.85;;;28.40;99.90;;;;;;5103032;28;20410;-76
2022/07/24 10:01:01;;;;;;;3.05;2.80;;;28.50;99.90;;;;;;5092033;28;20188;-76
2022/07/24 10:03:31;;;;;;;3.22;2.92;;;28.60;99.90;;;;;;5099202;28;20229;-72
2022/07/24 10:06:08;;;;;;;3.47;3.17;;;28.80;99.90;;;;;;5097704;28;20982;-77
2022/07/24 10:08:43;;;;;;;3.55;3.25;;;28.80;99.50;;;;;;5097895;28;20184;-70
2022/07/24 10:11:09;;;;;;;3.22;2.92;;;28.90;99.80;;;;;;5093207;28;20521;-80
2022/07/24 10:13:38;;;;;;;3.42;3.13;;;29.10;99.90;;;;;;5100836;28;20262;-78
2022/07/24 10:16:13;;;;;;;3.80;2.65;;;29.20;99.90;;;;;;5105885;28;20188;-76
2022/07/24 10:18:58;;;;;;;3.20;2.90;;;29.30;99.10;;;;;;5112918;28;20260;-78
2022/07/24 10:21:29;;;;;;;3.20;2.90;;;29.40;98.70;;;;;;5127585;27;20184;-79
2022/07/24 10:24:06;;;;;;;3.80;3.30;;;29.50;97.80;;;;;;5101981;28;20235;-79
2022/07/24 10:26:35;;;;;;;3.20;2.90;;;29.50;96.70;;;;;;5094222;28;20247;-73
2022/07/24 10:29:07;;;;;;;3.30;2.75;;;29.50;96.80;;;;;;5093292;28;20176;-77
2022/07/24 10:31:34;;;;;;;3.17;2.88;;;29.60;95.70;;;;;;5097913;28;20204;-75
2022/07/24 10:34:03;;;;;;;3.53;3.08;;;29.60;96.40;;;;;;5102882;28;20172;-79
2022/07/24 10:36:33;;;;;;;3.00;2.70;;;29.70;96.00;;;;;;5098382;28;20199;-73
2022/07/24 10:39:22;;;;;;;3.20;2.80;;;29.90;95.50;;;;;;5101507;28;20263;-73
2022/07/24 10:42:03;;;;;;;3.03;2.72;;;30.20;94.50;;;;;;5110322;28;20164;-78
2022/07/24 10:44:32;;;;;;;3.45;2.67;;;30.50;93.10;;;;;;5098752;28;20182;-78
2022/07/24 10:47:08;;;;;;;2.92;2.72;;;30.70;92.60;;;;;;5102470;28;20171;-76
2022/07/24 10:49:42;;;;;;;3.00;2.72;;;30.80;92.50;;;;;;5096466;28;20279;-77
2022/07/24 10:52:31;;;;;;;3.83;2.90;;;31.00;92.00;;;;;;5097705;28;20214;-78
2022/07/24 10:55:18;;;;;;;3.80;2.67;;;31.10;92.40;;;;;;5096501;28;20182;-79
2022/07/24 10:57:52;;;;;;;2.63;2.42;;;31.40;90.30;;;;;;5094873;28;20220;-75
2022/07/24 11:00:31;;;;;;;4.18;2.50;;;31.60;90.90;;;;;;5094681;28;20168;-79
2022/07/24 11:03:24;;;;;;;4.28;2.60;;;31.80;90.50;;;;;;5093518;28;20199;-73
2022/07/24 11:06:05;;;;;;;3.58;3.28;;;32.10;89.10;;;;;;5113953;28;20184;-70
2022/07/24 11:08:38;;;;;;;2.60;2.40;;;32.20;83.70;;;;;;5104256;28;20206;-79
2022/07/24 11:11:16;;;;;;;3.08;2.78;;;32.20;86.20;;;;;;5113133;28;20202;-71
2022/07/24 11:13:48;;;;;;;3.35;3.05;;;32.20;82.80;;;;;;5097248;28;20274;-79
2022/07/24 11:16:17;;;;;;;3.05;2.65;;;32.30;82.90;;;;;;5097266;28;20187;-80
2022/07/24 11:19:02;;;;;;;5.30;2.45;;;32.30;80.60;;;;;;5101284;28;20180;-73
2022/07/24 11:21:32;;;;;;;3.65;2.40;;;32.30;80.70;;;;;;5101573;28;20309;-81
2022/07/24 11:24:25;;;;;;;2.45;2.25;;;32.30;82.20;;;;;;5103851;28;20190;-78
2022/07/24 11:26:51;;;;;;;2.47;2.28;;;32.50;81.70;;;;;;5097306;28;20203;-75
2022/07/24 11:29:21;;;;;;;3.47;3.10;;;32.70;83.20;;;;;;5094226;28;20266;-76
2022/07/24 11:31:58;;;;;;;4.05;2.97;;;32.80;80.50;;;;;;5101726;28;20271;-77
2022/07/24 11:34:26;;;;;;;3.20;2.72;;;33.00;78.20;;;;;;5100657;28;20163;-77
2022/07/24 11:36:55;;;;;;;3.35;2.80;;;32.90;77.00;;;;;;5103603;28;20183;-72
2022/07/24 11:39:28;;;;;;;2.70;2.50;;;32.90;77.20;;;;;;5098277;28;20193;-72
2022/07/24 11:42:00;;;;;;;3.00;2.60;;;33.00;73.50;;;;;;5094152;28;20179;-78
2022/07/24 11:44:37;;;;;;;2.60;2.40;;;33.10;74.60;;;;;;5099235;28;20203;-77
2022/07/24 11:47:08;;;;;;;2.92;2.58;;;33.20;73.70;;;;;;5103965;28;20175;-78
2022/07/24 11:49:43;;;;;;;4.38;3.55;;;33.30;74.60;;;;;;5111384;28;20194;-77
2022/07/24 11:52:14;;;;;;;5.40;4.30;;;33.40;73.20;;;;;;5101172;28;20410;-70
2022/07/24 11:54:41;;;;;;;3.80;3.40;;;33.50;71.50;;;;;;5095910;28;20209;-78
2022/07/24 11:57:24;;;;;;;3.33;2.78;;;33.50;70.50;;;;;;5108785;28;20183;-74
2022/07/24 11:59:51;;;;;;;2.85;2.50;;;33.50;69.60;;;;;;5099464;28;20185;-77
2022/07/24 12:02:21;;;;;;;3.70;2.78;;;33.60;72.20;;;;;;5100836;28;20828;-76
2022/07/24 12:04:50;;;;;;;2.85;2.45;;;33.70;72.20;;;;;;5098040;28;20186;-78
2022/07/24 12:07:22;;;;;;;3.70;3.08;;;33.90;70.00;;;;;;5097076;28;20195;-77
2022/07/24 12:10:00;;;;;;;2.65;2.45;;;33.90;69.30;;;;;;5097388;28;20198;-84
2022/07/24 12:12:33;;;;;;;2.78;2.58;;;34.00;68.30;;;;;;5098526;28;20294;-88
2022/07/24 12:15:17;;;;;;;2.42;2.22;;;34.00;64.50;;;;;;5101397;28;20186;-92
2022/07/24 12:18:03;;;;;;;2.60;2.40;;;34.00;65.10;;;;;;5095957;28;20182;-89
2022/07/24 12:20:40;;;;;;;2.53;2.33;;;34.10;64.80;;;;;;5115536;28;20203;-76
2022/07/24 12:23:15;;;;;;;2.28;2.13;;;34.20;67.30;;;;;;5115364;28;20179;-84
2022/07/24 12:25:44;;;;;;;2.72;2.38;;;34.30;67.40;;;;;;5112588;28;20478;-86
2022/07/24 12:28:14;;;;;;;2.60;2.40;;;34.50;66.20;;;;;;5101506;28;20319;-88
2022/07/24 12:30:42;;;;;;;2.38;2.17;;;34.60;66.20;;;;;;5095141;28;20202;-85
2022/07/24 12:33:09;;;;;;;2.72;2.53;;;34.80;65.70;;;;;;5089115;28;20213;-79
2022/07/24 12:36:08;;;;;;;2.50;2.30;;;34.90;65.30;;;;;;5093601;28;20195;-76
2022/07/24 12:38:37;;;;;;;2.83;2.63;;;35.00;59.30;;;;;;5092957;28;20240;-75
2022/07/24 12:41:07;;;;;;;2.60;2.38;;;35.00;61.60;;;;;;5092673;28;20190;-74
2022/07/24 12:43:45;;;;;;;2.53;2.33;;;35.00;60.70;;;;;;5092435;28;20344;-75
2022/07/24 12:46:11;;;;;;;2.72;2.53;;;35.00;61.40;;;;;;5100289;28;20202;-78
2022/07/24 12:48:37;;;;;;;3.00;2.70;;;35.00;59.90;;;;;;5093215;28;20237;-79
2022/07/24 12:51:03;;;;;;;2.83;2.63;;;35.00;59.00;;;;;;5096642;28;20187;-75
2022/07/24 12:53:38;;;;;;;2.53;2.33;;;35.00;57.70;;;;;;5097708;28;20182;-74
2022/07/24 12:56:11;;;;;;;3.22;2.92;;;35.00;58.50;;;;;;5091748;28;20252;-77